createdAt,value
2018-07-08T00:03:13.182Z,13.33
2018-07-08T00:08:15.883Z,14.87
2018-07-08T00:13:18.946Z,13.97
2018-07-08T00:18:22.891Z,13.30
2018-07-08T00:23:25.578Z,13.97
2018-07-08T00:28:28.256Z,15.13
2018-07-08T00:33:30.926Z,14.23
2018-07-08T00:38:34.247Z,14.47
2018-07-08T00:43:36.851Z,14.73
2018-07-08T00:48:39.487Z,14.80
2018-07-08T00:53:42.107Z,14.43
2018-07-08T00:58:44.723Z,15.53
2018-07-08T01:03:47.450Z,15.00
2018-07-08T01:08:50.077Z,16.43
2018-07-08T01:13:52.902Z,15.63
2018-07-08T01:18:56.187Z,15.67
2018-07-08T01:23:58.834Z,15.07
2018-07-08T01:29:01.523Z,15.50
2018-07-08T01:34:04.275Z,18.33
2018-07-08T01:39:07.133Z,16.73
2018-07-08T01:44:09.767Z,16.03
2018-07-08T01:49:12.453Z,16.40
2018-07-08T01:54:15.258Z,16.30
2018-07-08T01:59:18.112Z,18.00
2018-07-08T02:04:20.831Z,17.63
2018-07-08T02:09:23.550Z,17.90
2018-07-08T02:14:26.258Z,18.20
2018-07-08T02:19:29.472Z,18.23
2018-07-08T02:24:32.188Z,18.37
2018-07-08T02:29:35.949Z,18.53
2018-07-08T02:34:38.676Z,18.40
2018-07-08T02:39:41.383Z,18.60
2018-07-08T02:44:44.182Z,19.20
2018-07-08T02:49:47.167Z,18.10
2018-07-08T02:54:49.850Z,17.53
2018-07-08T02:59:52.495Z,17.17
2018-07-08T03:04:55.089Z,16.77
2018-07-08T03:09:57.707Z,16.70
2018-07-08T03:15:00.315Z,17.00
2018-07-08T03:20:02.975Z,16.00
2018-07-08T03:25:05.661Z,15.80
2018-07-08T03:30:08.356Z,16.10
2018-07-08T03:35:11.323Z,14.83
2018-07-08T03:40:13.935Z,14.93
2018-07-08T03:45:16.489Z,13.90
2018-07-08T03:50:19.078Z,15.07
2018-07-08T03:55:21.727Z,14.13
2018-07-08T04:00:24.358Z,14.87
2018-07-08T04:05:27.023Z,14.13
2018-07-08T04:10:29.686Z,13.63
2018-07-08T04:15:32.333Z,13.97
2018-07-08T04:20:35.795Z,14.13
2018-07-08T04:25:38.994Z,14.17
2018-07-08T04:30:41.648Z,14.07
2018-07-08T04:35:44.275Z,13.40
2018-07-08T04:40:46.872Z,13.17
2018-07-08T04:45:49.492Z,12.60
2018-07-08T04:50:52.118Z,12.20
2018-07-08T04:55:54.718Z,13.13
2018-07-08T05:00:57.400Z,12.50
2018-07-08T05:06:00.037Z,11.00
2018-07-08T05:11:02.654Z,11.97
2018-07-08T05:16:05.483Z,11.50
2018-07-08T05:21:08.864Z,11.23
2018-07-08T05:26:11.574Z,10.83
2018-07-08T05:31:14.080Z,10.97
2018-07-08T05:36:16.763Z,10.37
2018-07-08T05:41:19.463Z,13.10
2018-07-08T05:46:22.114Z,12.27
2018-07-08T05:51:24.804Z,12.23
2018-07-08T05:56:27.968Z,12.87
2018-07-08T06:01:31.687Z,12.50
2018-07-08T06:06:34.303Z,10.73
2018-07-08T06:11:36.944Z,10.37
2018-07-08T06:16:39.555Z,10.27
2018-07-08T06:21:43.035Z,9.60
2018-07-08T06:26:45.672Z,10.17
2018-07-08T06:31:48.430Z,9.63
2018-07-08T06:36:51.033Z,8.57
2018-07-08T06:41:53.659Z,7.83
2018-07-08T06:46:56.284Z,8.27
2018-07-08T06:51:58.986Z,8.13
2018-07-08T06:57:01.606Z,8.53
2018-07-08T07:02:04.246Z,9.40
2018-07-08T07:07:06.942Z,8.17
2018-07-08T07:12:09.714Z,8.27
2018-07-08T07:17:12.546Z,8.27
2018-07-08T07:22:15.183Z,7.67
2018-07-08T07:27:17.812Z,8.30
2018-07-08T07:32:20.455Z,7.83
2018-07-08T07:37:23.167Z,8.13
2018-07-08T07:42:25.790Z,8.90
2018-07-08T07:47:28.398Z,8.33
2018-07-08T07:52:31.055Z,8.77
2018-07-08T07:57:33.654Z,8.67
2018-07-08T08:02:36.516Z,9.37
2018-07-08T08:07:39.128Z,8.83
2018-07-08T08:12:41.802Z,8.57
2018-07-08T08:17:44.433Z,8.17
2018-07-08T08:22:47.204Z,8.50
2018-07-08T08:27:49.958Z,9.03
2018-07-08T08:32:52.637Z,7.80
2018-07-08T08:37:56.302Z,7.07
2018-07-08T08:42:59.970Z,5.27
2018-07-08T08:48:02.586Z,5.77
2018-07-08T08:53:05.531Z,5.20
2018-07-08T08:58:08.258Z,5.20
2018-07-08T09:03:10.921Z,5.40
2018-07-08T09:08:13.700Z,4.70
2018-07-08T09:13:24.690Z,5.47
2018-07-08T09:18:27.911Z,5.40
2018-07-08T09:23:30.534Z,5.70
2018-07-08T09:28:33.162Z,4.90
2018-07-08T09:33:35.827Z,5.10
2018-07-08T09:38:38.584Z,4.40
2018-07-08T09:43:41.275Z,5.12
2018-07-08T09:48:43.888Z,5.37
2018-07-08T09:53:46.549Z,4.20
2018-07-08T09:58:49.471Z,4.23
2018-07-08T10:03:52.128Z,3.80
2018-07-08T10:08:54.744Z,3.53
2018-07-08T10:13:57.579Z,3.10
2018-07-08T10:19:00.130Z,3.67
2018-07-08T10:24:03.027Z,2.87
2018-07-08T10:29:06.392Z,2.97
2018-07-08T10:34:08.992Z,2.50
2018-07-08T10:39:12.706Z,2.90
2018-07-08T10:44:15.326Z,3.43
2018-07-08T10:49:17.939Z,2.77
2018-07-08T10:54:20.611Z,2.87
2018-07-08T10:59:23.196Z,2.40
2018-07-08T11:04:25.956Z,2.40
2018-07-08T11:09:28.615Z,2.50
2018-07-08T11:14:31.876Z,2.80
2018-07-08T11:19:34.498Z,2.20
2018-07-08T11:24:37.359Z,2.17
2018-07-08T11:29:40.192Z,2.30
2018-07-08T11:34:46.743Z,2.50
2018-07-08T11:39:49.380Z,2.10
2018-07-08T11:44:52.048Z,2.00
2018-07-08T11:49:54.731Z,2.08
2018-07-08T11:54:57.561Z,2.20
2018-07-08T12:00:00.208Z,2.10
2018-07-08T12:05:03.124Z,2.10
2018-07-08T12:10:06.069Z,1.90
2018-07-08T12:15:09.552Z,2.42
2018-07-08T12:20:12.271Z,3.25
2018-07-08T12:25:14.936Z,3.30
2018-07-08T12:30:17.635Z,3.92
2018-07-08T12:35:20.362Z,3.55
2018-07-08T12:40:23.132Z,3.90
2018-07-08T12:45:25.790Z,3.50
2018-07-08T12:50:28.455Z,2.90
2018-07-08T12:55:31.075Z,2.55
2018-07-08T13:00:33.705Z,2.40
2018-07-08T13:05:36.396Z,2.55
2018-07-08T13:10:39.103Z,2.20
2018-07-08T13:15:41.747Z,2.42
2018-07-08T13:20:44.418Z,2.30
2018-07-08T13:25:47.051Z,2.40
2018-07-08T13:30:49.798Z,2.27
2018-07-08T13:35:52.424Z,2.30
2018-07-08T13:40:55.102Z,2.42
2018-07-08T13:45:58.518Z,2.37
2018-07-08T13:51:01.139Z,1.77
2018-07-08T13:56:03.763Z,1.85
2018-07-08T14:01:06.445Z,1.90
2018-07-08T14:06:09.245Z,1.90
2018-07-08T14:11:11.891Z,1.75
2018-07-08T14:16:14.571Z,2.15
2018-07-08T14:21:17.211Z,2.10
2018-07-08T14:26:19.847Z,1.82
2018-07-08T14:31:22.547Z,1.87
2018-07-08T14:36:25.206Z,1.80
2018-07-08T14:41:27.859Z,1.60
2018-07-08T14:46:30.546Z,1.80
2018-07-08T14:51:33.183Z,1.75
2018-07-08T14:56:35.827Z,2.00
2018-07-08T15:01:38.561Z,1.92
2018-07-08T15:06:41.256Z,2.10
2018-07-08T15:11:44.019Z,2.20
2018-07-08T15:16:46.644Z,1.87
2018-07-08T15:21:49.672Z,1.82
2018-07-08T15:26:52.295Z,2.00
2018-07-08T15:31:54.975Z,1.98
2018-07-08T15:36:57.938Z,1.72
2018-07-08T15:42:00.876Z,1.57
2018-07-08T15:47:03.646Z,1.80
2018-07-08T15:52:06.837Z,1.65
2018-07-08T15:57:09.471Z,1.87
2018-07-08T16:02:12.156Z,1.90
2018-07-08T16:07:14.787Z,2.00
2018-07-08T16:12:17.527Z,1.92
2018-07-08T16:17:20.170Z,1.80
2018-07-08T16:22:22.862Z,1.67
2018-07-08T16:27:25.564Z,1.82
2018-07-08T16:32:28.334Z,2.00
2018-07-08T16:37:31.137Z,1.82
2018-07-08T16:42:33.843Z,1.50
2018-07-08T16:47:36.547Z,1.75
2018-07-08T16:52:39.274Z,2.15
2018-07-08T16:57:41.995Z,2.10
2018-07-08T17:02:44.627Z,1.75
2018-07-08T17:07:47.322Z,1.80
2018-07-08T17:12:50.092Z,1.65
2018-07-08T17:17:52.748Z,1.70
2018-07-08T17:22:55.499Z,1.90
2018-07-08T17:27:58.135Z,1.77
2018-07-08T17:33:01.234Z,1.85
2018-07-08T17:38:04.059Z,1.53
2018-07-08T17:43:06.728Z,1.67
2018-07-08T17:48:09.388Z,1.97
2018-07-08T17:53:12.032Z,1.70
2018-07-08T17:58:14.830Z,1.60
2018-07-08T18:03:17.829Z,1.50
2018-07-08T18:08:20.832Z,2.00
2018-07-08T18:13:23.522Z,1.80
2018-07-08T18:18:26.273Z,2.00
2018-07-08T18:23:28.954Z,1.97
2018-07-08T18:28:31.611Z,1.60
2018-07-08T18:33:34.400Z,1.50
2018-07-08T18:38:37.280Z,1.80
2018-07-08T18:43:40.012Z,1.70
2018-07-08T18:48:42.743Z,1.90
2018-07-08T18:53:45.595Z,1.80
2018-07-08T18:58:48.357Z,1.60
2018-07-08T19:03:52.430Z,1.90
2018-07-08T19:08:55.850Z,4.03
2018-07-08T19:13:58.510Z,2.83
2018-07-08T19:19:01.951Z,2.40
2018-07-08T19:24:04.693Z,2.03
2018-07-08T19:29:07.605Z,1.90
2018-07-08T19:34:10.211Z,2.30
2018-07-08T19:39:15.599Z,2.30
2018-07-08T19:44:19.364Z,2.13
2018-07-08T19:49:22.071Z,2.23
2018-07-08T19:54:25.109Z,1.97
2018-07-08T19:59:27.783Z,2.10
2018-07-08T20:04:30.459Z,2.50
2018-07-08T20:09:33.297Z,2.30
2018-07-08T20:14:36.299Z,2.30
2018-07-08T20:19:39.023Z,2.20
2018-07-08T20:24:42.345Z,2.07
2018-07-08T20:29:45.021Z,1.90
2018-07-08T20:34:47.667Z,2.00
2018-07-08T20:39:50.416Z,2.17
2018-07-08T20:44:53.331Z,1.70
2018-07-08T20:49:56.246Z,2.00
2018-07-08T20:55:00.021Z,1.80
2018-07-08T21:00:02.776Z,1.90
2018-07-08T21:05:05.523Z,1.70
2018-07-08T21:10:08.432Z,1.53
2018-07-08T21:15:11.100Z,1.93
2018-07-08T21:20:14.199Z,1.47
2018-07-08T21:25:16.879Z,1.57
2018-07-08T21:30:19.588Z,1.80
2018-07-08T21:35:22.324Z,1.50
2018-07-08T21:40:25.013Z,1.40
2018-07-08T21:45:27.724Z,1.47
2018-07-08T21:50:30.437Z,1.10
2018-07-08T21:55:33.227Z,1.43
2018-07-08T22:00:41.879Z,1.67
2018-07-08T22:05:44.550Z,1.57
2018-07-08T22:10:47.174Z,1.60
2018-07-08T22:15:49.799Z,1.47
2018-07-08T22:20:52.484Z,1.23
2018-07-08T22:25:55.188Z,1.40
2018-07-08T22:30:57.864Z,1.40
2018-07-08T22:36:00.487Z,1.00
2018-07-08T22:41:03.155Z,1.37
2018-07-08T22:46:05.857Z,1.60
2018-07-08T22:51:08.534Z,1.00
2018-07-08T22:56:11.179Z,1.20
2018-07-08T23:01:25.380Z,1.13
2018-07-08T23:06:28.046Z,1.43
2018-07-08T23:11:30.664Z,1.30
2018-07-08T23:16:33.327Z,1.40
2018-07-08T23:21:36.121Z,1.20
2018-07-08T23:26:39.463Z,1.10
2018-07-08T23:31:42.209Z,1.10
2018-07-08T23:36:44.960Z,1.47
2018-07-08T23:41:47.664Z,1.33
2018-07-08T23:46:50.275Z,1.50
2018-07-08T23:51:53.221Z,1.33
2018-07-08T23:56:55.875Z,1.40
